Time;durP1;ratioP1;P1;durP2;ratioP2;P2;SDS_P1;SDS_P2;PMS_P1;PMS_P2;Temp;Humidity;BMP_temperature;BMP_pressure;BME280_temperature;BME280_humidity;BME280_pressure;Samples;Min_cycle;Max_cycle;Signal;HPM_P1;HPM_P2
2021/10/28 00:13:31;;;;;;;12.70;6.18;;;;;;;24.46;20.42;99093.19;5059005;28;20043;-78
2021/10/28 00:15:58;;;;;;;15.85;7.45;;;;;;;24.62;20.45;99087.06;5060104;28;20035;-78
2021/10/28 00:18:45;;;;;;;13.77;8.00;;;;;;;24.77;20.20;99099.00;5060055;28;20506;-78
2021/10/28 00:21:12;;;;;;;11.93;7.65;;;;;;;24.81;19.81;99097.75;5060615;28;20266;-78
2021/10/28 00:23:45;;;;;;;14.85;6.50;;;;;;;24.81;19.64;99097.75;5060304;28;20056;-78
2021/10/28 00:26:13;;;;;;;11.18;6.70;;;;;;;24.87;19.77;99103.72;5061302;28;20054;-78
2021/10/28 00:28:40;;;;;;;14.25;7.72;;;;;;;24.69;19.96;99104.63;5067528;28;20522;-78
2021/10/28 00:31:07;;;;;;;12.13;6.85;;;;;;;24.76;19.53;99100.19;5060144;28;20055;-78
2021/10/28 00:33:34;;;;;;;12.20;6.50;;;;;;;24.68;19.78;99094.63;5066402;28;20047;-78
2021/10/28 00:36:03;;;;;;;9.52;5.55;;;;;;;24.74;19.62;99111.81;5063276;28;20068;-78
2021/10/28 00:38:30;;;;;;;11.75;6.38;;;;;;;24.81;19.78;99105.41;5061353;28;20033;-78
2021/10/28 00:40:56;;;;;;;11.73;6.45;;;;;;;24.88;19.73;99100.50;5066419;28;20060;-78
2021/10/28 00:43:22;;;;;;;11.15;7.20;;;;;;;24.69;20.42;99103.88;5057382;28;20496;-79
2021/10/28 00:45:53;;;;;;;11.32;7.00;;;;;;;24.31;20.46;99107.75;5060238;28;20494;-78
2021/10/28 00:48:20;;;;;;;11.23;7.18;;;;;;;24.01;21.03;99111.09;5058696;28;20481;-78
2021/10/28 00:50:51;;;;;;;10.82;5.85;;;;;;;23.66;21.97;99106.47;5062608;28;20104;-79
2021/10/28 00:53:18;;;;;;;;;;;;;;;23.69;21.79;99102.00;5060663;28;20513;-78
2021/10/28 00:55:45;;;;;;;9.65;4.90;;;;;;;24.05;21.12;99107.06;5065176;28;19926;-78
2021/10/28 00:58:12;;;;;;;12.93;7.30;;;;;;;24.11;21.15;99103.88;5057824;28;20055;-78
2021/10/28 01:00:38;;;;;;;9.75;5.53;;;;;;;24.14;21.24;99100.22;5060816;28;20048;-78
2021/10/28 01:03:05;;;;;;;9.95;5.70;;;;;;;24.17;20.93;99105.03;5062902;28;20043;-79
2021/10/28 01:05:31;;;;;;;10.82;5.25;;;;;;;23.99;21.18;99105.09;5060800;28;20028;-79
2021/10/28 01:07:58;;;;;;;14.00;5.97;;;;;;;24.02;21.43;99107.06;5056048;28;20044;-79
2021/10/28 01:10:25;;;;;;;9.02;5.50;;;;;;;24.07;20.98;99108.69;5061592;28;20021;-78
2021/10/28 01:12:51;;;;;;;14.40;6.28;;;;;;;24.20;21.31;99105.00;5060096;28;20033;-78
2021/10/28 01:15:17;;;;;;;8.95;5.30;;;;;;;24.15;21.24;99102.63;5063767;28;20028;-79
2021/10/28 01:17:44;;;;;;;9.50;5.63;;;;;;;24.20;20.83;99105.00;5064442;28;20122;-79
2021/10/28 01:20:11;;;;;;;9.40;4.85;;;;;;;24.27;20.85;99109.78;5055830;28;20098;-79
2021/10/28 01:22:40;;;;;;;10.13;5.28;;;;;;;24.19;20.89;99105.41;5060876;28;20495;-79
2021/10/28 01:25:06;;;;;;;12.88;5.40;;;;;;;24.20;21.20;99109.81;5056362;28;20024;-77
2021/10/28 01:27:33;;;;;;;9.40;5.40;;;;;;;24.23;20.89;99103.38;5059702;28;20036;-79
2021/10/28 01:29:59;;;;;;;8.57;4.45;;;;;;;24.12;20.95;99108.25;5051848;28;20051;-79
2021/10/28 01:32:25;;;;;;;7.45;4.63;;;;;;;24.31;20.76;99094.50;5070791;28;20041;-79
2021/10/28 01:34:51;;;;;;;7.72;4.00;;;;;;;24.33;20.91;99102.50;5058789;28;20039;-79
2021/10/28 01:37:17;;;;;;;7.25;4.50;;;;;;;24.49;20.46;99106.41;5063508;28;20036;-79
2021/10/28 01:39:43;;;;;;;6.38;3.42;;;;;;;24.47;20.36;99097.59;5062416;28;20032;-79
2021/10/28 01:42:10;;;;;;;8.65;4.07;;;;;;;24.65;20.20;99092.66;5061231;28;20115;-79
2021/10/28 01:44:37;;;;;;;8.38;4.18;;;;;;;24.68;20.31;99096.63;5060068;28;20028;-79
2021/10/28 01:47:03;;;;;;;6.78;3.72;;;;;;;24.77;20.83;99094.19;5063643;28;20028;-79
2021/10/28 01:49:30;;;;;;;8.20;4.78;;;;;;;24.13;21.50;99088.22;5047992;28;20032;-79
2021/10/28 01:51:58;;;;;;;6.55;3.88;;;;;;;24.20;21.07;99095.78;5065077;28;20029;-78
2021/10/28 01:54:26;;;;;;;6.38;4.03;;;;;;;24.46;20.86;99092.38;5063711;28;20036;-79
2021/10/28 01:56:53;;;;;;;6.13;4.22;;;;;;;24.10;21.38;99089.03;5063204;28;20048;-79
2021/10/28 01:59:20;;;;;;;5.90;3.08;;;;;;;24.22;21.27;99090.56;5078290;28;20040;-79
2021/10/28 02:01:46;;;;;;;6.47;3.63;;;;;;;24.58;21.09;99094.69;5061463;28;20025;-79
2021/10/28 02:04:16;;;;;;;5.43;3.55;;;;;;;24.77;20.48;99097.00;5065383;28;20070;-79
2021/10/28 02:06:43;;;;;;;6.43;3.10;;;;;;;24.67;20.21;99095.03;5068532;28;20029;-78
2021/10/28 02:09:09;;;;;;;8.60;5.03;;;;;;;24.64;20.37;99084.63;5062937;28;20037;-79
2021/10/28 02:11:35;;;;;;;6.13;3.72;;;;;;;24.53;20.43;99089.53;5061879;28;20040;-78
2021/10/28 02:14:01;;;;;;;6.85;3.45;;;;;;;24.66;20.32;99079.41;5064568;28;20025;-79
2021/10/28 02:16:32;;;;;;;6.97;3.30;;;;;;;24.61;20.31;99083.47;5061790;28;20044;-79
2021/10/28 02:19:00;;;;;;;5.95;3.83;;;;;;;24.74;20.27;99090.16;5062880;28;20532;-80
2021/10/28 02:21:27;;;;;;;6.38;3.47;;;;;;;24.80;19.78;99076.50;5062907;28;20037;-78
2021/10/28 02:23:54;;;;;;;4.95;3.45;;;;;;;24.69;19.96;99082.16;5067528;28;20084;-79
2021/10/28 02:26:21;;;;;;;5.80;3.47;;;;;;;24.77;19.74;99084.94;5065844;28;20033;-78
2021/10/28 02:28:48;;;;;;;6.60;3.92;;;;;;;24.69;19.48;99087.00;5065646;28;20025;-78
2021/10/28 02:31:14;;;;;;;6.20;3.95;;;;;;;24.24;19.63;99088.16;5065087;28;20036;-78
2021/10/28 02:33:40;;;;;;;10.02;3.38;;;;;;;24.00;20.44;99085.06;5065603;28;20060;-78
2021/10/28 02:36:06;;;;;;;5.20;3.00;;;;;;;23.87;20.52;99085.94;5064344;28;20029;-78
2021/10/28 02:38:32;;;;;;;6.65;3.70;;;;;;;24.03;20.71;99087.03;5065791;28;20063;-78
2021/10/28 02:40:58;;;;;;;6.20;3.58;;;;;;;24.17;20.15;99089.00;5060985;28;20541;-78
2021/10/28 02:43:24;;;;;;;7.28;3.28;;;;;;;24.34;20.12;99090.09;5065900;28;20021;-79
2021/10/28 02:45:51;;;;;;;5.50;4.13;;;;;;;24.35;20.03;99083.25;5067405;28;20035;-79
2021/10/28 02:48:17;;;;;;;5.22;3.28;;;;;;;24.43;19.75;99084.81;5061882;28;20527;-78
2021/10/28 02:50:46;;;;;;;5.03;3.55;;;;;;;24.53;19.84;99087.53;5062720;28;20036;-78
2021/10/28 02:53:12;;;;;;;5.97;2.92;;;;;;;24.59;19.79;99091.50;5067111;28;20474;-78
2021/10/28 02:55:39;;;;;;;7.35;3.53;;;;;;;24.66;19.49;99080.22;5063805;28;20029;-78
2021/10/28 02:58:05;;;;;;;6.72;3.75;;;;;;;24.39;19.87;99089.63;5061441;28;20453;-78
2021/10/28 03:00:31;;;;;;;4.70;3.25;;;;;;;24.16;20.23;99092.19;5062607;28;20111;-78
2021/10/28 03:02:57;;;;;;;5.28;3.22;;;;;;;24.10;20.23;99091.03;5062811;28;20455;-78
2021/10/28 03:05:23;;;;;;;6.70;3.08;;;;;;;23.96;20.58;99091.91;5061885;28;20060;-78
2021/10/28 03:07:49;;;;;;;6.25;3.65;;;;;;;24.15;20.40;99085.00;5063785;28;20033;-78
2021/10/28 03:10:16;;;;;;;6.32;3.63;;;;;;;23.97;20.79;99096.28;5061526;28;20122;-78
2021/10/28 03:12:44;;;;;;;4.50;2.92;;;;;;;23.89;20.65;99094.72;5065674;28;20557;-78
2021/10/28 03:15:12;;;;;;;4.40;2.60;;;;;;;23.94;20.79;99088.69;5065080;28;20505;-78
2021/10/28 03:25:52;;;;;;;5.70;3.53;;;;;;;24.48;19.46;99098.41;5065720;28;20040;-78
2021/10/28 03:28:20;;;;;;;6.90;3.05;;;;;;;24.47;19.53;99097.59;5063354;28;20036;-78
2021/10/28 03:30:47;;;;;;;4.30;2.58;;;;;;;24.43;19.49;99101.66;5063347;28;20182;-78
2021/10/28 03:33:17;;;;;;;4.63;3.00;;;;;;;24.38;19.81;99105.69;5065573;28;20036;-78
2021/10/28 03:35:46;;;;;;;6.80;2.92;;;;;;;24.20;20.03;99107.78;5064317;28;20114;-78
2021/10/28 03:38:38;;;;;;;6.80;3.38;;;;;;;24.31;19.98;99111.34;5062097;28;20044;-78
2021/10/28 03:41:40;;;;;;;4.75;3.03;;;;;;;24.25;20.20;99112.22;5057146;28;20036;-79
2021/10/28 03:49:32;;;;;;;6.22;3.22;;;;;;;23.78;20.45;99127.66;5065712;28;20041;-79
2021/10/28 03:55:46;;;;;;;5.07;3.10;;;;;;;24.27;20.16;99123.81;5062744;28;20060;-79
2021/10/28 04:00:23;;;;;;;7.00;3.05;;;;;;;24.34;19.97;99127.34;5058314;28;20059;-79
2021/10/28 04:06:09;;;;;;;5.10;3.20;;;;;;;24.22;20.63;99127.84;5051145;28;20043;-78
2021/10/28 04:17:14;;;;;;;5.57;3.55;;;;;;;24.16;19.92;99126.66;5061250;28;20093;-78
2021/10/28 04:19:55;;;;;;;8.63;3.90;;;;;;;23.90;20.02;99136.38;5062111;28;20139;-78
2021/10/28 04:30:24;;;;;;;4.82;2.70;;;;;;;23.63;20.67;99135.31;5066623;28;20398;-79
2021/10/28 04:32:51;;;;;;;5.40;3.40;;;;;;;23.81;20.86;99141.63;5064221;28;20039;-78
2021/10/28 04:35:19;;;;;;;4.93;3.17;;;;;;;23.99;20.46;99144.38;5066883;28;20033;-79
2021/10/28 04:37:46;;;;;;;5.55;3.17;;;;;;;24.22;19.68;99147.50;5067434;28;20047;-79
2021/10/28 04:40:13;;;;;;;8.57;4.03;;;;;;;24.24;19.65;99147.88;5063980;28;20029;-79
2021/10/28 04:42:40;;;;;;;4.40;2.88;;;;;;;24.27;19.31;99147.03;5068055;28;20047;-79
2021/10/28 04:45:06;;;;;;;5.03;2.70;;;;;;;24.39;18.89;99137.34;5061099;28;20116;-78
2021/10/28 04:47:32;;;;;;;5.97;3.10;;;;;;;24.29;19.07;99139.03;5064383;28;20059;-78
2021/10/28 04:49:59;;;;;;;7.70;4.57;;;;;;;23.92;20.19;99145.19;5061570;28;20036;-78
2021/10/28 04:52:25;;;;;;;5.85;2.70;;;;;;;23.66;20.19;99147.72;5067461;28;20109;-78
2021/10/28 04:54:51;;;;;;;7.43;3.45;;;;;;;23.44;20.93;99151.75;5062943;28;20161;-78
2021/10/28 04:57:17;;;;;;;7.30;3.55;;;;;;;23.52;20.53;99148.56;5066221;28;20097;-79
2021/10/28 04:59:43;;;;;;;5.28;3.05;;;;;;;23.60;20.55;99141.72;5064882;28;20028;-79
2021/10/28 05:02:09;;;;;;;7.38;3.70;;;;;;;23.76;20.50;99144.84;5064274;28;20122;-79
2021/10/28 05:04:35;;;;;;;5.30;3.05;;;;;;;23.71;20.64;99144.50;5065589;28;20024;-78
2021/10/28 05:07:04;;;;;;;4.57;3.08;;;;;;;23.79;20.23;99148.84;5059045;28;20051;-78
2021/10/28 05:09:32;;;;;;;6.50;3.47;;;;;;;23.91;20.12;99154.03;5066661;28;20025;-78
2021/10/28 05:11:59;;;;;;;6.65;3.42;;;;;;;24.12;19.98;99141.94;5066927;28;20091;-78
2021/10/28 05:14:25;;;;;;;7.05;3.97;;;;;;;24.18;20.00;99145.94;5064321;28;20038;-78
2021/10/28 05:16:56;;;;;;;5.78;3.53;;;;;;;24.21;19.75;99148.69;5066607;28;20035;-78
2021/10/28 05:19:22;;;;;;;5.78;3.40;;;;;;;24.38;19.63;99144.19;5066824;28;20045;-78
2021/10/28 05:21:48;;;;;;;5.82;3.22;;;;;;;24.32;19.41;99145.84;5069006;28;20059;-78
2021/10/28 05:24:14;;;;;;;4.68;3.15;;;;;;;24.39;19.43;99148.56;5067792;28;20489;-78
2021/10/28 05:26:40;;;;;;;5.30;3.03;;;;;;;24.43;19.25;99150.19;5071910;28;20024;-78
2021/10/28 05:29:07;;;;;;;7.45;4.15;;;;;;;24.38;19.43;99158.22;5070545;28;20492;-78
2021/10/28 05:31:33;;;;;;;5.80;3.80;;;;;;;24.27;19.36;99147.03;5061037;28;20039;-77
2021/10/28 05:33:59;;;;;;;5.38;3.33;;;;;;;24.29;19.54;99152.25;5067833;28;20032;-78
2021/10/28 05:36:26;;;;;;;5.13;2.70;;;;;;;24.41;19.39;99143.38;5071302;28;20040;-78
2021/10/28 05:38:52;;;;;;;5.80;3.17;;;;;;;24.35;19.27;99151.41;5056348;28;20017;-78
2021/10/28 05:41:19;;;;;;;6.40;3.80;;;;;;;23.99;19.79;99153.56;5066724;28;20057;-78
2021/10/28 05:43:45;;;;;;;6.45;4.07;;;;;;;23.67;20.28;99147.31;5073308;28;20032;-78
2021/10/28 05:46:11;;;;;;;8.15;3.75;;;;;;;23.78;20.72;99145.25;5067067;28;20444;-78
2021/10/28 05:48:37;;;;;;;6.68;4.05;;;;;;;23.96;20.41;99151.59;5060805;28;20067;-78
2021/10/28 05:51:04;;;;;;;6.55;3.85;;;;;;;24.04;20.46;99155.97;5070960;28;20037;-78
2021/10/28 05:53:31;;;;;;;4.82;3.17;;;;;;;24.36;20.26;99152.22;5067635;28;20552;-78
2021/10/28 05:55:57;;;;;;;7.97;4.28;;;;;;;24.58;19.52;99153.66;5068441;28;20029;-78
2021/10/28 05:58:23;;;;;;;9.90;4.68;;;;;;;24.79;19.22;99155.53;5058892;28;20047;-78
2021/10/28 06:00:50;;;;;;;15.52;7.75;;;;;;;24.88;19.06;99153.88;5068451;28;20029;-78
2021/10/28 06:03:16;;;;;;;14.18;7.00;;;;;;;24.98;18.78;99160.63;5064525;28;20025;-78
2021/10/28 06:05:42;;;;;;;22.00;7.32;;;;;;;24.66;18.84;99155.22;5072372;28;20028;-78
2021/10/28 06:08:08;;;;;;;14.68;7.13;;;;;;;24.57;18.68;99157.69;5073179;28;20094;-78
2021/10/28 06:10:34;;;;;;;15.27;7.10;;;;;;;24.37;19.20;99154.63;5071164;28;20056;-79
2021/10/28 06:13:03;;;;;;;8.93;4.82;;;;;;;24.12;19.31;99153.97;5058463;28;20040;-78
2021/10/28 06:15:31;;;;;;;9.25;4.85;;;;;;;24.42;19.33;99156.19;5071633;28;20107;-78
2021/10/28 06:18:12;;;;;;;8.43;5.22;;;;;;;24.70;19.32;99153.19;5074971;28;20127;-78
2021/10/28 06:20:38;;;;;;;8.38;4.18;;;;;;;24.71;19.19;99157.59;5068402;28;20072;-78
2021/10/28 06:23:04;;;;;;;9.05;5.38;;;;;;;24.54;19.24;99164.13;5075063;28;20477;-78
2021/10/28 06:25:32;;;;;;;7.18;4.05;;;;;;;24.40;20.09;99169.84;5074444;28;20029;-78
2021/10/28 06:27:58;;;;;;;8.82;4.40;;;;;;;24.62;19.88;99168.50;5074541;28;20097;-78
2021/10/28 06:30:24;;;;;;;8.88;4.75;;;;;;;24.76;20.11;99168.44;5074058;28;20043;-78
2021/10/28 06:33:09;;;;;;;12.45;5.10;;;;;;;24.63;20.65;99165.28;5054867;28;20029;-78
2021/10/28 06:35:42;;;;;;;8.48;4.97;;;;;;;24.50;21.21;99166.19;5070663;28;20390;-78
2021/10/28 06:38:08;;;;;;;8.02;4.22;;;;;;;24.63;21.47;99172.91;5081589;28;20023;-78
2021/10/28 06:40:36;;;;;;;7.03;4.45;;;;;;;24.70;21.63;99167.22;5087839;28;20039;-78
2021/10/28 06:43:03;;;;;;;6.72;3.97;;;;;;;24.98;21.23;99175.47;5074872;28;20428;-78
2021/10/28 06:45:29;;;;;;;6.07;3.85;;;;;;;25.31;20.96;99171.97;5074590;28;20040;-78
2021/10/28 06:47:56;;;;;;;8.15;4.90;;;;;;;25.53;21.07;99174.59;5065238;28;20082;-78
2021/10/28 06:50:27;;;;;;;7.90;4.57;;;;;;;25.52;20.95;99168.16;5071592;28;20041;-78
2021/10/28 06:53:00;;;;;;;;;;;;;;;25.61;21.65;99174.09;5070610;28;20028;-78
2021/10/28 07:03:32;;;;;;;7.32;4.72;;;;;;;26.14;20.94;99170.66;5068778;28;20146;-78
2021/10/28 07:06:04;;;;;;;9.05;4.65;;;;;;;25.93;21.37;99173.72;5069976;28;20029;-79
2021/10/28 07:08:31;;;;;;;8.73;5.15;;;;;;;25.88;21.61;99177.78;5070613;28;20389;-78
2021/10/28 07:10:59;;;;;;;10.32;6.35;;;;;;;25.96;22.08;99172.88;5062709;28;20037;-79
2021/10/28 07:13:29;;;;;;;8.60;4.68;;;;;;;25.96;21.71;99173.69;5070390;28;20425;-79
2021/10/28 07:16:00;;;;;;;8.25;5.53;;;;;;;25.77;22.22;99177.13;5070520;28;20025;-78
2021/10/28 07:18:39;;;;;;;6.78;4.60;;;;;;;25.71;22.23;99170.38;5069569;28;20428;-78
2021/10/28 07:21:26;;;;;;;11.27;5.00;;;;;;;25.84;22.95;99173.44;5069729;28;20052;-79
2021/10/28 07:34:52;;;;;;;7.88;4.40;;;;;;;26.21;23.36;99159.31;5064880;28;20029;-79
2021/10/28 07:59:37;;;;;;;6.80;4.03;;;;;;;28.06;20.75;99148.13;5065579;28;20086;-79
2021/10/28 08:20:58;;;;;;;4.93;3.35;;;;;;;28.05;21.32;99135.22;5066121;28;20062;-79
2021/10/28 08:28:42;;;;;;;4.50;2.80;;;;;;;27.14;22.39;99128.53;5068826;28;20048;-80
2021/10/28 08:31:08;;;;;;;3.10;2.33;;;;;;;27.29;23.06;99127.81;5061706;28;20385;-80
2021/10/28 08:33:34;;;;;;;6.60;3.95;;;;;;;27.75;21.52;99134.66;5069175;28;20036;-79
2021/10/28 08:36:09;;;;;;;4.38;3.75;;;;;;;28.12;20.99;99120.16;5062076;28;20398;-79
2021/10/28 08:38:41;;;;;;;6.32;4.45;;;;;;;27.24;22.44;99122.69;5069343;28;20054;-79
2021/10/28 08:41:09;;;;;;;5.90;3.38;;;;;;;27.91;21.86;99120.59;5060454;28;20041;-80
2021/10/28 08:43:40;;;;;;;4.50;3.63;;;;;;;27.93;22.15;99118.13;5070535;28;20034;-80
2021/10/28 08:46:07;;;;;;;6.32;3.67;;;;;;;28.16;21.39;99114.44;5066787;28;20473;-80
2021/10/28 08:48:37;;;;;;;4.25;3.00;;;;;;;28.28;21.78;99102.47;5065882;28;20029;-80
2021/10/28 09:24:37;;;;;;;4.80;3.15;;;;;;;26.39;22.64;99094.31;5071475;28;20032;-79
2021/10/28 09:27:14;;;;;;;3.60;2.38;;;;;;;27.77;21.46;99096.25;5069881;28;20032;-79
2021/10/28 09:30:06;;;;;;;2.33;1.90;;;;;;;29.00;20.81;99083.34;5060159;28;20382;-79
2021/10/28 09:32:40;;;;;;;4.25;2.55;;;;;;;29.52;19.60;99091.66;5070926;28;20044;-79
2021/10/28 09:46:50;;;;;;;2.67;1.45;;;;;;;28.75;20.04;99084.00;5067788;28;20079;-79
2021/10/28 09:51:48;;;;;;;4.43;1.60;;;;;;;30.30;19.07;99076.78;5068552;28;20078;-79
2021/10/28 09:54:29;;;;;;;2.90;2.00;;;;;;;30.07;18.47;99072.25;5069379;28;20033;-79
2021/10/28 09:59:46;;;;;;;2.22;1.10;;;;;;;30.99;18.59;99069.28;5068683;28;19924;-80
2021/10/28 10:02:32;;;;;;;1.42;1.33;;;;;;;31.66;17.75;99063.25;5072094;28;20032;-80
2021/10/28 10:05:02;;;;;;;1.52;1.10;;;;;;;31.87;17.72;99062.44;5068035;28;20157;-80
2021/10/28 10:07:29;;;;;;;1.83;1.35;;;;;;;31.85;16.55;99060.06;5065787;28;20028;-80
2021/10/28 10:09:57;;;;;;;4.15;1.33;;;;;;;31.56;17.14;99058.75;5070762;28;20370;-79
2021/10/28 10:12:24;;;;;;;2.35;1.38;;;;;;;30.32;18.24;99059.31;5063536;28;20543;-79
2021/10/28 10:14:50;;;;;;;1.58;1.00;;;;;;;31.08;18.57;99057.22;5072138;28;20393;-80
2021/10/28 10:17:17;;;;;;;1.17;1.05;;;;;;;31.73;17.38;99058.09;5064695;28;20048;-79
2021/10/28 10:19:48;;;;;;;1.55;0.90;;;;;;;31.96;17.54;99066.16;5063783;28;20083;-80
2021/10/28 10:23:13;;;;;;;1.00;0.90;;;;;;;32.23;17.66;99065.50;5053732;28;20428;-79
2021/10/28 10:25:35;;;;;;;1.50;1.20;;;;;;;31.15;16.02;99049.25;5064022;28;20039;-79
2021/10/28 11:22:37;;;;;;;;;;;;;;;30.00;17.58;99007.31;5066686;28;20036;-79
2021/10/28 11:30:54;;;;;;;2.28;1.52;;;;;;;28.89;19.67;98998.81;5066598;28;20124;-81
2021/10/28 12:19:58;;;;;;;9.20;4.18;;;;;;;28.16;21.42;98956.28;5008403;28;20069;-79
2021/10/28 12:21:37;;;;;;;10.30;6.80;;;;;;;26.82;22.50;98964.81;5063835;28;20504;-79
2021/10/28 12:24:53;;;;;;;8.77;5.43;;;;;;;28.54;20.51;98958.09;5066261;28;20394;-79
2021/10/28 12:47:30;;;;;;;15.10;8.27;;;;;;;25.15;25.71;98935.63;5066601;28;20044;-79
2021/10/28 12:55:56;;;;;;;8.95;6.38;;;;;;;26.64;23.14;98925.69;5068235;28;20079;-79
2021/10/28 13:04:12;;;;;;;11.82;6.28;;;;;;;28.19;21.65;98924.34;5070703;28;20039;-79
2021/10/28 13:56:48;;;;;;;6.78;4.10;;;;;;;27.03;22.79;98894.72;5029924;28;20090;-79
2021/10/28 14:14:52;;;;;;;10.10;4.70;;;;;;;25.57;24.74;98899.75;5063647;28;20040;-79
2021/10/28 14:18:50;;;;;;;5.20;3.88;;;;;;;25.18;25.46;98908.72;5072017;28;20041;-79
2021/10/28 14:23:54;;;;;;;5.78;3.95;;;;;;;27.10;22.93;98905.84;5064902;28;20292;-79
2021/10/28 15:28:58;;;;;;;4.13;2.40;;;;;;;30.22;19.08;98899.78;5060060;28;20100;-81
2021/10/28 15:39:18;;;;;;;2.85;1.85;;;;;;;30.12;19.11;98895.25;5070125;28;20040;-80
2021/10/28 15:53:03;;;;;;;2.55;1.98;;;;;;;29.61;19.37;98888.03;5066067;28;20044;-81
2021/10/28 16:22:34;;;;;;;5.35;2.55;;;;;;;28.62;19.59;98897.38;5069237;28;20498;-80
2021/10/28 16:25:01;;;;;;;4.43;2.60;;;;;;;28.62;19.66;98883.25;5069082;28;20072;-81
2021/10/28 16:27:27;;;;;;;5.85;3.72;;;;;;;28.64;19.52;98889.25;5066966;28;20062;-80
2021/10/28 16:29:53;;;;;;;7.20;4.22;;;;;;;28.61;19.41;98886.53;5069727;28;20028;-80
2021/10/28 16:32:19;;;;;;;7.88;4.63;;;;;;;28.65;19.73;98887.22;5070280;28;20439;-82
2021/10/28 16:34:45;;;;;;;4.72;3.45;;;;;;;28.65;19.64;98887.22;5069833;28;20489;-82
2021/10/28 16:37:13;;;;;;;5.05;2.92;;;;;;;28.60;19.49;98887.75;5072701;28;20032;-82
2021/10/28 16:39:41;;;;;;;7.10;3.90;;;;;;;28.50;19.54;98883.16;5069209;28;20025;-80
2021/10/28 16:42:07;;;;;;;7.35;3.20;;;;;;;28.40;19.58;98884.25;5062398;28;20466;-81
2021/10/28 16:44:33;;;;;;;5.38;3.33;;;;;;;28.45;19.74;98880.91;5059682;28;20371;-82
2021/10/28 16:46:59;;;;;;;7.30;3.47;;;;;;;28.55;19.37;98882.63;5052925;28;20486;-82
2021/10/28 16:49:25;;;;;;;6.32;3.92;;;;;;;28.35;19.64;98888.41;5071523;28;20037;-82
2021/10/28 16:51:52;;;;;;;4.18;2.70;;;;;;;28.22;19.86;98883.91;5072559;28;20036;-82
2021/10/28 16:54:18;;;;;;;6.85;3.13;;;;;;;28.12;19.94;98885.00;5072590;28;20054;-81
2021/10/28 16:56:46;;;;;;;4.63;3.50;;;;;;;28.15;19.95;98887.72;5045261;28;20072;-81
2021/10/28 16:59:12;;;;;;;8.07;3.80;;;;;;;28.21;19.74;98879.50;5066922;28;20060;-82
2021/10/28 17:01:41;;;;;;;7.13;3.95;;;;;;;28.11;20.03;98883.41;5065106;28;20036;-81
2021/10/28 17:04:07;;;;;;;5.43;3.15;;;;;;;28.11;19.86;98884.19;5064234;28;20039;-80
2021/10/28 17:06:33;;;;;;;6.15;3.30;;;;;;;28.21;19.60;98874.66;5069077;28;20036;-81
2021/10/28 17:09:05;;;;;;;8.18;4.35;;;;;;;28.41;19.54;98885.81;5066518;28;20040;-81
2021/10/28 17:11:31;;;;;;;8.10;3.65;;;;;;;28.28;19.80;98885.78;5062143;28;20041;-81
2021/10/28 17:13:58;;;;;;;9.85;3.95;;;;;;;28.29;19.83;98872.44;5068165;28;20457;-81
2021/10/28 17:16:25;;;;;;;8.93;4.28;;;;;;;28.30;19.53;98871.19;5064212;28;20029;-80
2021/10/28 17:18:51;;;;;;;7.20;3.92;;;;;;;28.26;19.60;98873.34;5060496;28;20039;-80
2021/10/28 17:21:17;;;;;;;8.30;4.28;;;;;;;28.32;19.66;98871.53;5068013;28;20102;-80
2021/10/28 17:23:48;;;;;;;7.07;3.90;;;;;;;28.24;19.89;98873.00;5071420;28;20032;-80
2021/10/28 17:26:16;;;;;;;;;;;;;;;28.03;20.52;98877.13;5070740;28;20024;-80
2021/10/28 17:28:43;;;;;;;8.02;4.03;;;;;;;28.01;19.97;98868.31;5062573;28;20313;-80
2021/10/28 17:31:10;;;;;;;6.03;3.80;;;;;;;28.00;20.15;98873.19;5070669;28;20039;-80
2021/10/28 17:33:38;;;;;;;8.40;4.80;;;;;;;27.95;19.97;98876.50;5062240;28;20044;-80
2021/10/28 17:36:05;;;;;;;9.55;5.72;;;;;;;27.78;19.96;98882.56;5077182;28;20062;-80
2021/10/28 17:38:31;;;;;;;10.05;5.22;;;;;;;27.70;20.39;98878.34;5069561;28;20036;-80
2021/10/28 17:40:58;;;;;;;11.82;6.55;;;;;;;27.76;20.34;98880.19;5073968;28;20040;-80
2021/10/28 17:43:25;;;;;;;10.25;5.50;;;;;;;27.80;20.25;98872.44;5070417;28;20251;-80
2021/10/28 17:45:56;;;;;;;12.40;6.20;;;;;;;27.93;20.26;98881.81;5068488;28;20032;-80
2021/10/28 17:48:23;;;;;;;;;;;;;;;27.88;20.55;98876.69;5072951;28;20029;-80
2021/10/28 17:50:49;;;;;;;15.30;6.50;;;;;;;28.08;19.97;98874.56;5054595;28;20470;-80
2021/10/28 17:53:15;;;;;;;13.18;6.63;;;;;;;28.15;19.95;98882.06;5068572;28;20107;-80
2021/10/28 17:55:41;;;;;;;13.43;7.97;;;;;;;28.07;20.15;98880.69;5074936;28;20110;-80
2021/10/28 17:58:07;;;;;;;13.50;7.30;;;;;;;27.90;19.95;98888.31;5074284;28;20040;-80
2021/10/28 18:00:34;;;;;;;15.70;7.85;;;;;;;27.81;20.07;98885.31;5065268;28;20033;-80
2021/10/28 18:03:00;;;;;;;11.18;6.75;;;;;;;27.52;20.28;98875.13;5075510;28;20395;-79
2021/10/28 18:05:26;;;;;;;12.93;7.22;;;;;;;27.44;20.64;98879.38;5076404;28;20025;-80
2021/10/28 18:07:52;;;;;;;15.07;8.15;;;;;;;27.17;20.93;98879.53;5074740;28;20025;-80
2021/10/28 18:10:19;;;;;;;16.13;9.05;;;;;;;27.05;21.08;98871.75;5074577;28;20028;-80
2021/10/28 18:12:46;;;;;;;16.60;9.10;;;;;;;26.87;21.30;98874.94;5073412;28;20088;-81
2021/10/28 18:15:12;;;;;;;20.42;10.20;;;;;;;26.83;21.29;98874.22;5079755;28;20040;-80
2021/10/28 18:17:39;;;;;;;21.50;11.07;;;;;;;26.73;21.45;98870.34;5074362;28;20090;-80
2021/10/28 18:20:07;;;;;;;25.55;11.40;;;;;;;26.87;21.57;98862.84;5075078;28;20586;-80
2021/10/28 18:22:38;;;;;;;19.25;11.15;;;;;;;26.81;21.43;98859.78;5070145;28;20032;-81
2021/10/28 18:25:08;;;;;;;;;;;;;;;26.61;22.19;98856.13;5071832;28;20025;-80
2021/10/28 18:27:34;;;;;;;25.35;12.75;;;;;;;25.96;22.47;98860.50;5069678;28;19917;-79
2021/10/28 18:30:00;;;;;;;25.25;12.15;;;;;;;25.75;22.97;98860.88;5069088;28;20024;-79
2021/10/28 18:32:28;;;;;;;24.40;12.35;;;;;;;26.22;22.10;98854.06;5070843;28;20383;-81
2021/10/28 18:34:54;;;;;;;23.70;12.38;;;;;;;25.96;22.57;98857.69;5048317;28;20143;-81
2021/10/28 18:37:21;;;;;;;30.25;14.20;;;;;;;25.98;22.67;98858.88;5063373;28;20033;-80
2021/10/28 18:39:50;;;;;;;30.05;13.80;;;;;;;26.15;22.65;98854.19;5065031;28;20033;-79
2021/10/28 18:42:16;;;;;;;25.05;13.32;;;;;;;25.92;22.77;98846.53;5065648;28;20016;-79
2021/10/28 18:44:42;;;;;;;25.20;12.82;;;;;;;26.40;22.26;98843.25;5062973;28;20040;-79
2021/10/28 18:47:09;;;;;;;26.10;13.18;;;;;;;26.55;22.06;98844.56;5062555;28;20036;-79
2021/10/28 18:49:35;;;;;;;22.73;12.98;;;;;;;26.81;21.35;98842.06;5053520;28;20081;-79
2021/10/28 18:52:01;;;;;;;22.08;12.23;;;;;;;27.15;21.01;98839.69;5059647;28;20025;-79
2021/10/28 18:54:28;;;;;;;28.30;12.75;;;;;;;27.01;21.42;98835.16;5064886;28;20573;-79
2021/10/28 18:56:54;;;;;;;19.13;11.60;;;;;;;26.96;20.95;98832.06;5065502;28;20185;-78
2021/10/28 18:59:20;;;;;;;23.85;12.32;;;;;;;26.91;21.20;98832.59;5064605;28;20024;-78
2021/10/28 19:01:50;;;;;;;26.65;13.85;;;;;;;26.61;21.96;98833.56;5067621;28;20039;-79
2021/10/28 19:04:17;;;;;;;25.08;11.65;;;;;;;26.65;21.87;98831.50;5062172;28;20035;-79
2021/10/28 19:06:43;;;;;;;22.88;11.93;;;;;;;26.77;21.45;98827.28;5069716;28;20044;-79
2021/10/28 19:09:11;;;;;;;21.00;11.55;;;;;;;26.64;21.66;98827.09;5063014;28;20025;-79
2021/10/28 19:11:37;;;;;;;20.58;9.95;;;;;;;26.50;21.59;98827.38;5063802;28;20517;-79
2021/10/28 19:14:04;;;;;;;21.45;11.25;;;;;;;26.64;21.80;98827.88;5062267;28;20021;-79
2021/10/28 19:16:30;;;;;;;19.77;11.43;;;;;;;26.68;21.73;98819.34;5067885;28;20514;-78
2021/10/28 19:18:56;;;;;;;18.92;10.30;;;;;;;26.71;21.44;98826.94;5068007;28;20140;-80
2021/10/28 19:21:22;;;;;;;22.70;11.63;;;;;;;26.66;21.33;98828.25;5070859;28;20039;-78
2021/10/28 19:23:48;;;;;;;19.75;11.23;;;;;;;26.73;21.21;98830.13;5070725;28;20064;-79
2021/10/28 19:26:15;;;;;;;21.92;12.07;;;;;;;27.00;21.14;98818.72;5060977;28;20029;-79
2021/10/28 19:28:43;;;;;;;20.17;10.80;;;;;;;27.04;20.87;98823.03;5072101;28;20043;-79
2021/10/28 19:31:14;;;;;;;26.77;12.35;;;;;;;26.60;21.67;98820.75;5068591;28;20033;-79
2021/10/28 19:33:59;;;;;;;19.38;10.25;;;;;;;26.43;21.52;98822.69;5067387;28;20028;-79
2021/10/28 19:39:21;;;;;;;22.13;11.30;;;;;;;26.66;21.15;98822.59;5077186;28;20041;-79
2021/10/28 19:41:57;;;;;;;21.40;10.45;;;;;;;26.97;20.77;98811.13;5065257;28;20116;-79
2021/10/28 19:47:13;;;;;;;23.67;12.63;;;;;;;27.06;20.63;98802.84;5066794;28;20534;-79